createdAt,value
2023-05-20T00:01:09.119Z,5.17
2023-05-20T00:05:19.893Z,7.17
2023-05-20T00:09:29.925Z,6.90
2023-05-20T00:13:39.560Z,6.83
2023-05-20T00:17:48.669Z,7.43
2023-05-20T00:22:00.355Z,7.90
2023-05-20T00:26:09.428Z,8.53
2023-05-20T00:30:18.784Z,7.17
2023-05-20T00:34:28.912Z,8.80
2023-05-20T00:38:39.632Z,8.47
2023-05-20T00:42:48.814Z,8.43
2023-05-20T00:46:58.381Z,6.40
2023-05-20T00:51:08.033Z,6.87
2023-05-20T00:55:19.061Z,8.80
2023-05-20T00:59:28.719Z,6.37
2023-05-20T01:03:38.004Z,7.10
2023-05-20T01:07:47.366Z,7.80
2023-05-20T01:12:05.273Z,8.03
2023-05-20T01:16:15.197Z,10.97
2023-05-20T01:20:25.438Z,10.00
2023-05-20T01:24:36.657Z,9.30
2023-05-20T01:28:45.938Z,8.27
2023-05-20T01:32:57.277Z,10.37
2023-05-20T01:37:08.687Z,10.13
2023-05-20T01:41:19.278Z,14.30
2023-05-20T01:45:28.612Z,10.23
2023-05-20T01:49:37.799Z,12.10
2023-05-20T01:53:46.978Z,9.60
2023-05-20T01:57:57.772Z,10.43
2023-05-20T02:02:06.923Z,11.30
2023-05-20T02:06:16.155Z,13.40
2023-05-20T02:10:25.333Z,9.83
2023-05-20T02:14:37.198Z,12.10
2023-05-20T02:18:46.407Z,11.83
2023-05-20T02:22:55.588Z,10.83
2023-05-20T02:27:05.140Z,12.73
2023-05-20T02:31:16.456Z,11.57
2023-05-20T02:35:25.692Z,13.87
2023-05-20T02:39:34.936Z,15.60
2023-05-20T02:43:45.436Z,12.10
2023-05-20T02:47:56.103Z,12.20
2023-05-20T02:52:05.791Z,10.37
2023-05-20T02:56:15.078Z,11.37
2023-05-20T03:00:24.882Z,12.33
2023-05-20T03:04:38.998Z,11.37
2023-05-20T03:08:48.431Z,12.60
2023-05-20T03:12:57.759Z,11.83
2023-05-20T03:17:07.129Z,11.43
2023-05-20T03:21:17.844Z,9.50
2023-05-20T03:25:27.515Z,10.90
2023-05-20T03:29:36.643Z,8.13
2023-05-20T03:33:46.492Z,9.40
2023-05-20T03:37:57.251Z,9.10
2023-05-20T03:42:07.201Z,10.03
2023-05-20T03:46:16.440Z,11.07
2023-05-20T03:50:25.571Z,9.50
2023-05-20T03:54:37.159Z,9.10
2023-05-20T03:58:46.269Z,10.10
2023-05-20T04:02:56.619Z,8.67
2023-05-20T04:07:06.532Z,11.57
2023-05-20T04:11:17.507Z,9.37
2023-05-20T04:15:26.884Z,11.47
2023-05-20T04:19:36.544Z,11.37
2023-05-20T04:23:45.928Z,13.37
2023-05-20T04:27:58.006Z,13.03
2023-05-20T04:32:11.394Z,13.70
2023-05-20T04:36:20.996Z,12.67
2023-05-20T04:40:30.110Z,12.70
2023-05-20T04:44:42.309Z,12.47
2023-05-20T04:48:51.611Z,16.83
2023-05-20T04:53:00.750Z,14.83
2023-05-20T04:57:09.978Z,13.70
2023-05-20T05:01:21.005Z,13.33
2023-05-20T05:05:30.164Z,13.53
2023-05-20T05:09:39.258Z,13.10
2023-05-20T05:13:48.421Z,13.20
2023-05-20T05:17:59.231Z,15.90
2023-05-20T05:22:08.454Z,16.80
2023-05-20T05:26:17.578Z,15.53
2023-05-20T05:30:27.061Z,13.83
2023-05-20T05:34:37.814Z,15.67
2023-05-20T05:38:46.798Z,12.83
2023-05-20T05:42:55.931Z,15.80
2023-05-20T05:47:06.163Z,15.17
2023-05-20T05:51:16.842Z,15.47
2023-05-20T05:55:26.074Z,16.17
2023-05-20T05:59:35.305Z,13.23
2023-05-20T06:03:44.485Z,14.73
2023-05-20T06:07:55.205Z,15.47
2023-05-20T06:12:04.403Z,14.70
2023-05-20T06:16:13.578Z,14.83
2023-05-20T06:20:22.749Z,13.43
2023-05-20T06:24:33.710Z,13.40
2023-05-20T06:28:43.180Z,12.13
2023-05-20T06:32:52.379Z,12.70
2023-05-20T06:37:01.511Z,13.67
2023-05-20T06:41:12.297Z,11.47
2023-05-20T06:45:22.152Z,16.93
2023-05-20T06:49:31.379Z,12.73
2023-05-20T06:53:40.633Z,12.13
2023-05-20T06:57:51.280Z,9.97
2023-05-20T07:02:00.489Z,8.63
2023-05-20T07:06:09.689Z,9.13
2023-05-20T07:10:18.963Z,9.07
2023-05-20T07:14:29.610Z,12.00
2023-05-20T07:18:38.713Z,9.73
2023-05-20T07:22:48.935Z,9.33
2023-05-20T07:26:58.092Z,9.20
2023-05-20T07:31:09.012Z,9.53
2023-05-20T07:35:18.229Z,9.63
2023-05-20T07:39:28.021Z,9.93
2023-05-20T07:43:37.258Z,10.27
2023-05-20T07:47:48.265Z,9.50
2023-05-20T07:51:57.383Z,10.70
2023-05-20T07:56:06.842Z,8.93
2023-05-20T08:00:16.328Z,11.50
2023-05-20T08:04:28.001Z,10.03
2023-05-20T08:08:37.206Z,12.17
2023-05-20T08:12:46.416Z,10.90
2023-05-20T08:16:55.859Z,10.70
2023-05-20T08:21:08.235Z,8.43
2023-05-20T08:25:17.319Z,9.27
2023-05-20T08:29:26.566Z,10.10
2023-05-20T08:33:35.877Z,7.37
2023-05-20T08:37:46.680Z,7.97
2023-05-20T08:41:55.992Z,8.30
2023-05-20T08:46:07.341Z,9.87
2023-05-20T08:50:17.866Z,7.30
2023-05-20T08:54:33.600Z,8.13
2023-05-20T08:58:43.557Z,8.00
2023-05-20T09:02:52.803Z,7.40
2023-05-20T09:07:02.091Z,7.33
2023-05-20T09:11:14.291Z,6.80
2023-05-20T09:15:23.590Z,5.90
2023-05-20T09:19:34.988Z,7.67
2023-05-20T09:23:50.040Z,7.67
2023-05-20T09:28:01.508Z,6.30
2023-05-20T09:32:11.381Z,6.07
2023-05-20T09:36:22.065Z,6.53
2023-05-20T09:40:32.167Z,10.03
2023-05-20T09:44:43.051Z,8.40
2023-05-20T09:48:53.081Z,7.33
2023-05-20T09:53:06.855Z,6.73
2023-05-20T09:57:16.368Z,7.63
2023-05-20T10:01:27.469Z,7.97
2023-05-20T10:05:41.823Z,10.27
2023-05-20T10:10:01.651Z,8.03
2023-05-20T10:14:35.014Z,6.33
2023-05-20T10:18:55.712Z,8.53
2023-05-20T10:23:05.986Z,8.33
2023-05-20T10:27:16.555Z,6.20
2023-05-20T10:31:26.090Z,7.70
2023-05-20T10:35:37.076Z,9.93
2023-05-20T10:39:46.807Z,7.37
2023-05-20T10:44:03.626Z,7.67
2023-05-20T10:48:22.729Z,7.03
2023-05-20T10:52:35.686Z,7.93
2023-05-20T10:56:54.376Z,7.43
2023-05-20T11:01:06.060Z,7.70
2023-05-20T11:05:18.756Z,7.37
2023-05-20T11:09:31.612Z,7.53
2023-05-20T11:13:41.320Z,5.87
2023-05-20T11:17:57.484Z,7.50
2023-05-20T11:22:09.953Z,6.77
2023-05-20T11:26:22.753Z,6.40
2023-05-20T11:30:33.878Z,5.93
2023-05-20T11:34:44.030Z,7.10
2023-05-20T11:38:54.028Z,6.93
2023-05-20T11:43:06.340Z,5.63
2023-05-20T11:47:17.661Z,7.23
2023-05-20T11:51:30.128Z,7.80
2023-05-20T11:55:48.032Z,7.90
2023-05-20T11:59:59.060Z,6.50
2023-05-20T12:04:08.684Z,6.50
2023-05-20T12:08:18.757Z,5.63
2023-05-20T12:12:28.015Z,5.23
2023-05-20T12:16:40.091Z,7.50
2023-05-20T12:20:49.707Z,9.77
2023-05-20T12:24:59.076Z,7.47
2023-05-20T12:29:08.665Z,7.17
2023-05-20T12:33:20.994Z,7.87
2023-05-20T12:37:30.366Z,5.40
2023-05-20T12:41:39.674Z,7.07
2023-05-20T12:45:49.193Z,7.83
2023-05-20T12:50:00.234Z,5.90
2023-05-20T12:54:09.736Z,9.13
2023-05-20T12:58:19.346Z,5.50
2023-05-20T13:02:28.968Z,6.57
2023-05-20T13:06:40.163Z,6.07
2023-05-20T13:10:49.656Z,7.67
2023-05-20T13:14:59.088Z,8.47
2023-05-20T13:19:08.340Z,5.37
2023-05-20T13:23:19.342Z,4.97
2023-05-20T13:27:28.940Z,7.00
2023-05-20T13:31:38.420Z,5.10
2023-05-20T13:35:47.935Z,8.40
2023-05-20T13:39:58.839Z,5.90
2023-05-20T13:44:08.045Z,7.40
2023-05-20T13:48:17.411Z,5.03
2023-05-20T13:52:27.798Z,7.57
2023-05-20T13:56:38.817Z,6.07
2023-05-20T14:00:48.160Z,7.80
2023-05-20T14:04:57.750Z,4.90
2023-05-20T14:09:10.420Z,3.70
2023-05-20T14:13:21.294Z,6.83
2023-05-20T14:17:30.720Z,5.17
2023-05-20T14:21:40.040Z,8.27
2023-05-20T14:25:49.255Z,6.33
2023-05-20T14:30:00.025Z,6.30
2023-05-20T14:34:09.202Z,6.60
2023-05-20T14:38:19.185Z,5.07
2023-05-20T14:42:28.579Z,6.33
2023-05-20T14:46:41.723Z,6.67
2023-05-20T14:50:51.470Z,4.30
2023-05-20T14:55:00.882Z,5.63
2023-05-20T14:59:10.272Z,4.50
2023-05-20T15:03:21.283Z,7.23
2023-05-20T15:07:30.998Z,6.60
2023-05-20T15:11:40.174Z,6.33
2023-05-20T15:15:49.553Z,5.30
2023-05-20T15:20:00.396Z,5.73
2023-05-20T15:24:09.726Z,8.23
2023-05-20T15:28:19.978Z,5.60
2023-05-20T15:32:30.892Z,6.37
2023-05-20T15:36:41.679Z,4.07
2023-05-20T15:40:51.207Z,7.23
2023-05-20T15:45:00.495Z,7.33
2023-05-20T15:49:09.850Z,6.50
2023-05-20T15:53:20.567Z,6.43
2023-05-20T15:57:30.913Z,6.20
2023-05-20T16:01:40.420Z,6.03
2023-05-20T16:05:49.808Z,4.67
2023-05-20T16:10:00.753Z,5.90
2023-05-20T16:14:10.116Z,5.87
2023-05-20T16:18:19.463Z,5.00
2023-05-20T16:22:28.576Z,5.87
2023-05-20T16:26:39.430Z,4.77
2023-05-20T16:30:49.713Z,8.23
2023-05-20T16:34:59.116Z,5.90
2023-05-20T16:39:08.285Z,6.53
2023-05-20T16:43:19.030Z,5.70
2023-05-20T16:47:28.309Z,7.47
2023-05-20T16:51:37.442Z,5.37
2023-05-20T16:55:46.935Z,6.17
2023-05-20T16:59:58.581Z,5.80
2023-05-20T17:04:07.969Z,3.77
2023-05-20T17:08:17.462Z,5.40
2023-05-20T17:12:26.755Z,4.23
2023-05-20T17:16:37.557Z,5.53
2023-05-20T17:20:46.805Z,4.93
2023-05-20T17:24:57.401Z,4.90
2023-05-20T17:29:06.918Z,3.20
2023-05-20T17:33:17.773Z,5.80
2023-05-20T17:37:27.063Z,4.97
2023-05-20T17:41:36.235Z,3.63
2023-05-20T17:45:45.382Z,3.80
2023-05-20T17:49:56.795Z,4.23
2023-05-20T17:54:06.542Z,5.83
2023-05-20T17:58:16.109Z,6.03
2023-05-20T18:02:25.329Z,4.60
2023-05-20T18:06:36.254Z,5.23
2023-05-20T18:10:45.464Z,4.87
2023-05-20T18:14:54.756Z,5.20
2023-05-20T18:19:04.289Z,3.33
2023-05-20T18:23:14.987Z,6.50
2023-05-20T18:27:24.168Z,3.93
2023-05-20T18:31:33.433Z,4.87
2023-05-20T18:35:42.692Z,8.40
2023-05-20T18:39:53.458Z,4.50
2023-05-20T18:44:04.484Z,7.67
2023-05-20T18:48:23.297Z,7.70
2023-05-20T18:52:35.950Z,7.87
2023-05-20T18:56:48.785Z,7.87
2023-05-20T19:00:58.098Z,6.80
2023-05-20T19:05:08.892Z,6.03
2023-05-20T19:09:17.937Z,7.43
2023-05-20T19:13:30.776Z,8.57
2023-05-20T19:17:40.117Z,8.53
2023-05-20T19:21:49.570Z,6.37
2023-05-20T19:25:58.797Z,7.33
2023-05-20T19:30:11.252Z,7.43
2023-05-20T19:34:20.393Z,7.33
2023-05-20T19:38:29.581Z,8.37
2023-05-20T19:42:38.646Z,6.97
2023-05-20T19:46:50.496Z,6.00
2023-05-20T19:51:00.685Z,6.40
2023-05-20T19:55:10.773Z,9.60
2023-05-20T19:59:19.982Z,8.37
2023-05-20T20:03:30.561Z,10.13
2023-05-20T20:07:39.996Z,5.53
2023-05-20T20:11:49.109Z,8.27
2023-05-20T20:15:59.136Z,8.77
2023-05-20T20:20:12.225Z,7.37
2023-05-20T20:24:21.680Z,8.60
2023-05-20T20:28:30.866Z,7.77
2023-05-20T20:32:40.051Z,8.63
2023-05-20T20:36:51.558Z,7.97
2023-05-20T20:41:04.078Z,8.97
2023-05-20T20:45:13.686Z,6.90
2023-05-20T20:49:25.749Z,9.37
2023-05-20T20:53:37.525Z,6.23
2023-05-20T20:57:46.722Z,8.77
2023-05-20T21:01:56.146Z,10.33
2023-05-20T21:06:05.500Z,9.00
2023-05-20T21:10:16.072Z,8.97
2023-05-20T21:14:25.640Z,12.33
2023-05-20T21:18:34.657Z,11.77
2023-05-20T21:22:43.903Z,8.97
2023-05-20T21:26:54.867Z,10.03
2023-05-20T21:31:04.191Z,10.73
2023-05-20T21:35:13.700Z,11.13
2023-05-20T21:39:22.969Z,11.33
2023-05-20T21:43:33.633Z,10.03
2023-05-20T21:47:42.706Z,13.47
2023-05-20T21:51:52.128Z,11.43
2023-05-20T21:56:01.374Z,8.53
2023-05-20T22:00:19.158Z,11.93
2023-05-20T22:04:28.940Z,12.33
2023-05-20T22:08:38.120Z,8.43
2023-05-20T22:12:48.053Z,10.20
2023-05-20T22:16:58.901Z,9.83
2023-05-20T22:21:08.125Z,10.63
2023-05-20T22:25:17.632Z,9.33
2023-05-20T22:29:26.683Z,11.33
2023-05-20T22:33:37.777Z,9.50
2023-05-20T22:37:47.081Z,8.53
2023-05-20T22:41:56.381Z,9.77
2023-05-20T22:46:05.628Z,8.80
2023-05-20T22:50:16.373Z,9.20
2023-05-20T22:54:25.503Z,9.27
2023-05-20T22:58:39.766Z,9.07
2023-05-20T23:02:50.272Z,14.37
2023-05-20T23:07:01.097Z,11.27
2023-05-20T23:11:10.242Z,7.50
2023-05-20T23:15:20.453Z,9.90
2023-05-20T23:19:29.779Z,8.57
2023-05-20T23:23:40.927Z,9.33
2023-05-20T23:27:50.320Z,10.07
2023-05-20T23:31:59.331Z,8.60
2023-05-20T23:36:09.750Z,9.83
2023-05-20T23:40:20.400Z,10.30
2023-05-20T23:44:29.788Z,9.43
2023-05-20T23:48:38.948Z,7.83
2023-05-20T23:52:48.112Z,7.90
2023-05-20T23:56:58.784Z,9.97
